Time;durP1;ratioP1;P1;durP2;ratioP2;P2;SDS_P1;SDS_P2;PMS_P1;PMS_P2;Temp;Humidity;BMP_temperature;BMP_pressure;BME280_temperature;BME280_humidity;BME280_pressure;Samples;Min_cycle;Max_cycle;Signal;HPM_P1;HPM_P2
2022/01/10 00:00:39;;;;;;;3.75;1.80;;;;;;;;;;5133502;28;20100;-71
2022/01/10 00:03:05;;;;;;;2.70;1.50;;;;;;;;;;5132782;28;20023;-71
2022/01/10 00:05:31;;;;;;;4.55;1.60;;;;;;;;;;5133772;28;20092;-71
2022/01/10 00:07:57;;;;;;;4.13;2.10;;;;;;;;;;5133601;28;20099;-71
2022/01/10 00:10:23;;;;;;;4.07;1.90;;;;;;;;;;5132420;28;20117;-71
2022/01/10 00:12:49;;;;;;;4.70;1.48;;;;;;;;;;5136744;27;20381;-73
2022/01/10 00:15:16;;;;;;;2.47;1.55;;;;;;;;;;5136292;27;20035;-72
2022/01/10 00:17:43;;;;;;;1.95;1.40;;;;;;;;;;5137940;27;20023;-72
2022/01/10 00:20:10;;;;;;;5.05;1.50;;;;;;;;;;5136419;27;20030;-72
2022/01/10 00:22:37;;;;;;;5.20;1.38;;;;;;;;;;5137635;27;20031;-72
2022/01/10 00:25:03;;;;;;;5.78;1.63;;;;;;;;;;5137648;27;20110;-75
2022/01/10 00:27:29;;;;;;;32.00;1.73;;;;;;;;;;5138038;27;20047;-72
2022/01/10 00:29:55;;;;;;;6.93;1.52;;;;;;;;;;5137240;27;20019;-71
2022/01/10 00:32:23;;;;;;;14.18;1.63;;;;;;;;;;5137190;27;20033;-71
2022/01/10 00:34:49;;;;;;;10.45;1.70;;;;;;;;;;5136527;27;20047;-70
2022/01/10 00:37:15;;;;;;;7.22;1.50;;;;;;;;;;5134858;27;20084;-72
2022/01/10 00:39:41;;;;;;;8.43;1.60;;;;;;;;;;5137474;27;20027;-69
2022/01/10 00:42:07;;;;;;;8.27;1.80;;;;;;;;;;5137124;27;20058;-68
2022/01/10 00:44:38;;;;;;;5.05;1.60;;;;;;;;;;5118773;27;20027;-67
2022/01/10 00:47:04;;;;;;;9.60;1.50;;;;;;;;;;5118664;27;20027;-68
2022/01/10 00:49:31;;;;;;;9.00;1.55;;;;;;;;;;5136079;27;20139;-71
2022/01/10 00:51:56;;;;;;;6.07;1.83;;;;;;;;;;5136995;27;20096;-66
2022/01/10 00:54:22;;;;;;;4.95;1.60;;;;;;;;;;5137008;27;20098;-69
2022/01/10 00:56:49;;;;;;;5.93;1.27;;;;;;;;;;5136818;27;20031;-72
2022/01/10 00:59:15;;;;;;;3.17;1.40;;;;;;;;;;5136684;27;20411;-70
2022/01/10 01:01:41;;;;;;;5.03;1.55;;;;;;;;;;5136674;27;20102;-71
2022/01/10 01:04:07;;;;;;;6.68;1.52;;;;;;;;;;5136705;27;20025;-72
2022/01/10 01:06:33;;;;;;;3.45;1.50;;;;;;;;;;5136785;27;20099;-71
2022/01/10 01:09:05;;;;;;;5.15;1.27;;;;;;;;;;5137125;27;20066;-71
2022/01/10 01:14:10;;;;;;;4.90;2.20;;;;;;;;;;5130607;27;20115;-72
2022/01/10 01:24:33;;;;;;;6.13;1.48;;;;;;;;;;5129510;27;20580;-71
2022/01/10 01:26:59;;;;;;;3.03;1.42;;;;;;;;;;5117779;27;20023;-70
2022/01/10 01:29:27;;;;;;;3.10;1.20;;;;;;;;;;5118864;27;20473;-71
2022/01/10 01:31:53;;;;;;;2.60;1.33;;;;;;;;;;5103522;27;20470;-67
2022/01/10 01:34:20;;;;;;;4.35;1.17;;;;;;;;;;5123632;27;20023;-71
2022/01/10 01:36:50;;;;;;;4.13;1.65;;;;;;;;;;5121827;27;20071;-70
2022/01/10 01:39:21;;;;;;;3.67;1.45;;;;;;;;;;5136169;27;20072;-72
2022/01/10 01:41:54;;;;;;;3.40;1.55;;;;;;;;;;5114773;27;20126;-72
2022/01/10 01:44:20;;;;;;;3.70;1.30;;;;;;;;;;5124740;27;20032;-72
2022/01/10 01:46:46;;;;;;;1.85;1.15;;;;;;;;;;5125797;27;20026;-72
2022/01/10 01:49:12;;;;;;;5.57;1.20;;;;;;;;;;5125625;27;20027;-73
2022/01/10 01:51:38;;;;;;;2.47;1.50;;;;;;;;;;5136345;27;20027;-72
2022/01/10 01:54:04;;;;;;;2.25;1.15;;;;;;;;;;5131232;27;20063;-73
2022/01/10 01:56:30;;;;;;;3.55;1.60;;;;;;;;;;5135966;27;20470;-74
2022/01/10 01:58:57;;;;;;;2.60;1.30;;;;;;;;;;5135664;27;20404;-68
2022/01/10 02:01:25;;;;;;;3.58;1.40;;;;;;;;;;5127304;27;20024;-71
2022/01/10 02:03:52;;;;;;;5.68;1.50;;;;;;;;;;5136374;27;20028;-74
2022/01/10 02:06:18;;;;;;;2.72;1.33;;;;;;;;;;5124361;27;20031;-73
2022/01/10 02:08:44;;;;;;;2.30;1.15;;;;;;;;;;5126308;27;20027;-74
2022/01/10 02:11:12;;;;;;;3.60;1.20;;;;;;;;;;5134265;27;20023;-73
2022/01/10 02:13:38;;;;;;;3.10;1.40;;;;;;;;;;5102808;28;20371;-74
2022/01/10 02:16:06;;;;;;;3.25;1.23;;;;;;;;;;5123106;27;20058;-73
2022/01/10 02:18:33;;;;;;;3.25;1.50;;;;;;;;;;5127607;27;20023;-74
2022/01/10 02:21:01;;;;;;;1.63;1.20;;;;;;;;;;5123748;27;20039;-71
2022/01/10 02:23:28;;;;;;;2.83;1.38;;;;;;;;;;5129472;27;20069;-71
2022/01/10 02:25:54;;;;;;;2.50;1.30;;;;;;;;;;5135252;27;20038;-68
2022/01/10 02:28:20;;;;;;;2.97;1.42;;;;;;;;;;5116907;27;20059;-71
2022/01/10 02:30:46;;;;;;;2.75;1.23;;;;;;;;;;5134517;27;20027;-68
2022/01/10 02:33:12;;;;;;;2.80;1.55;;;;;;;;;;5134995;27;20021;-70
2022/01/10 02:35:50;;;;;;;2.88;1.42;;;;;;;;;;5133725;27;20752;-72
2022/01/10 02:38:16;;;;;;;2.35;1.40;;;;;;;;;;5134826;27;20047;-72
2022/01/10 02:40:44;;;;;;;2.55;1.55;;;;;;;;;;5134734;27;20088;-71
2022/01/10 02:43:10;;;;;;;2.40;1.23;;;;;;;;;;5134889;27;20473;-72
2022/01/10 02:45:36;;;;;;;2.67;1.33;;;;;;;;;;5134923;27;20019;-71
2022/01/10 02:48:02;;;;;;;2.38;1.35;;;;;;;;;;5134524;27;20383;-73
2022/01/10 02:50:28;;;;;;;4.47;1.27;;;;;;;;;;5116513;27;20037;-74
2022/01/10 02:52:54;;;;;;;2.00;1.42;;;;;;;;;;5134704;27;20019;-68
2022/01/10 02:55:20;;;;;;;2.85;1.30;;;;;;;;;;5134993;27;20110;-73
2022/01/10 02:57:46;;;;;;;3.17;1.40;;;;;;;;;;5134554;27;20031;-68
2022/01/10 03:00:23;;;;;;;3.97;1.25;;;;;;;;;;5134521;27;20427;-72
2022/01/10 03:02:51;;;;;;;2.95;1.35;;;;;;;;;;5134259;27;20084;-73
2022/01/10 03:05:19;;;;;;;4.32;1.45;;;;;;;;;;5135196;27;20031;-75
2022/01/10 03:07:45;;;;;;;6.55;1.67;;;;;;;;;;5134999;27;20027;-73
2022/01/10 03:10:11;;;;;;;3.53;1.70;;;;;;;;;;5134122;27;20019;-73
2022/01/10 03:12:37;;;;;;;3.40;1.27;;;;;;;;;;5134446;27;20406;-75
2022/01/10 03:15:05;;;;;;;3.85;1.50;;;;;;;;;;5134006;27;20031;-71
2022/01/10 03:17:31;;;;;;;3.45;1.63;;;;;;;;;;5126142;27;20027;-72
2022/01/10 03:19:57;;;;;;;2.90;1.33;;;;;;;;;;5122997;27;20051;-73
2022/01/10 03:22:23;;;;;;;2.63;1.20;;;;;;;;;;5107380;28;20020;-72
2022/01/10 03:24:49;;;;;;;2.78;1.58;;;;;;;;;;5128288;27;20402;-64
2022/01/10 03:27:15;;;;;;;1.80;1.08;;;;;;;;;;5122298;27;20027;-67
2022/01/10 03:29:41;;;;;;;9.45;1.50;;;;;;;;;;5122554;27;20023;-72
2022/01/10 03:32:08;;;;;;;3.38;1.40;;;;;;;;;;5124984;27;20011;-70
2022/01/10 03:34:34;;;;;;;5.35;1.45;;;;;;;;;;5123367;27;20031;-70
2022/01/10 03:37:00;;;;;;;3.38;1.40;;;;;;;;;;5121402;28;20028;-70
2022/01/10 03:39:26;;;;;;;2.45;1.40;;;;;;;;;;5121454;27;20023;-69
2022/01/10 03:41:52;;;;;;;4.75;1.52;;;;;;;;;;5113355;28;20028;-70
2022/01/10 03:44:18;;;;;;;3.60;1.30;;;;;;;;;;5113248;28;20110;-70
2022/01/10 03:46:44;;;;;;;2.97;1.40;;;;;;;;;;5113135;28;20055;-70
2022/01/10 03:49:10;;;;;;;1.60;1.05;;;;;;;;;;5121524;28;20054;-71
2022/01/10 03:51:36;;;;;;;4.90;1.23;;;;;;;;;;5133802;28;20103;-70
2022/01/10 03:54:02;;;;;;;6.45;1.10;;;;;;;;;;5133749;28;20023;-71
2022/01/10 03:56:29;;;;;;;3.47;1.30;;;;;;;;;;5115297;28;20122;-70
2022/01/10 03:58:55;;;;;;;3.08;1.40;;;;;;;;;;5133516;28;20399;-67
2022/01/10 04:01:22;;;;;;;2.58;1.40;;;;;;;;;;5133824;28;20035;-71
2022/01/10 04:03:48;;;;;;;2.53;1.25;;;;;;;;;;5133684;28;20019;-71
2022/01/10 04:06:14;;;;;;;6.85;1.65;;;;;;;;;;5132953;28;20027;-71
2022/01/10 04:08:40;;;;;;;4.25;1.33;;;;;;;;;;5115110;28;20023;-69
2022/01/10 04:11:06;;;;;;;2.78;1.23;;;;;;;;;;5133531;28;20024;-70
2022/01/10 04:13:32;;;;;;;2.28;0.90;;;;;;;;;;5133594;28;20027;-71
2022/01/10 04:15:58;;;;;;;2.25;1.40;;;;;;;;;;5133409;28;20064;-71
2022/01/10 04:18:24;;;;;;;2.28;1.30;;;;;;;;;;5133644;28;20450;-71
2022/01/10 04:20:50;;;;;;;3.47;1.50;;;;;;;;;;5133637;28;20019;-69
2022/01/10 04:23:17;;;;;;;3.08;1.35;;;;;;;;;;5133304;28;20026;-69
2022/01/10 04:25:43;;;;;;;3.22;1.38;;;;;;;;;;5115164;28;20493;-70
2022/01/10 04:28:09;;;;;;;2.50;1.40;;;;;;;;;;5133323;28;20023;-70
2022/01/10 04:30:39;;;;;;;3.58;1.40;;;;;;;;;;5133525;28;20023;-65
2022/01/10 04:33:05;;;;;;;3.58;1.20;;;;;;;;;;5133452;28;20016;-70
2022/01/10 04:35:32;;;;;;;4.60;1.30;;;;;;;;;;5133305;28;20043;-71
2022/01/10 04:37:58;;;;;;;3.72;2.05;;;;;;;;;;5132718;28;20015;-71
2022/01/10 04:40:25;;;;;;;3.55;1.35;;;;;;;;;;5133263;28;20023;-71
2022/01/10 04:42:51;;;;;;;3.67;1.42;;;;;;;;;;5133446;28;20024;-70
2022/01/10 04:45:17;;;;;;;4.13;1.40;;;;;;;;;;5133311;28;20027;-69
2022/01/10 04:47:43;;;;;;;5.45;1.40;;;;;;;;;;5114937;28;20352;-72
2022/01/10 04:52:35;;;;;;;3.38;1.30;;;;;;;;;;5133123;28;20022;-70
2022/01/10 04:55:01;;;;;;;3.88;1.27;;;;;;;;;;5132137;28;20043;-70
2022/01/10 04:57:28;;;;;;;2.22;1.10;;;;;;;;;;5132996;27;20375;-71
2022/01/10 04:59:54;;;;;;;3.42;1.38;;;;;;;;;;5136013;27;20027;-65
2022/01/10 05:02:20;;;;;;;2.03;1.15;;;;;;;;;;5136756;27;20461;-70
2022/01/10 05:04:46;;;;;;;3.85;1.50;;;;;;;;;;5136551;27;20019;-70
2022/01/10 05:07:12;;;;;;;4.13;1.55;;;;;;;;;;5137024;27;20102;-68
2022/01/10 05:09:38;;;;;;;2.75;1.40;;;;;;;;;;5136828;27;20015;-71
2022/01/10 05:12:04;;;;;;;1.60;1.05;;;;;;;;;;5136661;27;20027;-71
2022/01/10 05:14:32;;;;;;;2.53;1.30;;;;;;;;;;5136611;27;20155;-71
2022/01/10 05:16:58;;;;;;;4.72;1.52;;;;;;;;;;5135775;27;20028;-71
2022/01/10 05:19:24;;;;;;;3.30;1.55;;;;;;;;;;5136581;27;20026;-70
2022/01/10 05:21:50;;;;;;;3.17;1.30;;;;;;;;;;5118227;27;20034;-71
2022/01/10 05:24:16;;;;;;;3.10;1.35;;;;;;;;;;5117823;27;20462;-71
2022/01/10 05:26:42;;;;;;;5.00;1.67;;;;;;;;;;5136224;27;20027;-70
2022/01/10 05:29:08;;;;;;;2.53;1.50;;;;;;;;;;5117633;27;20027;-70
2022/01/10 05:31:34;;;;;;;10.32;1.45;;;;;;;;;;5136339;27;20024;-70
2022/01/10 05:34:00;;;;;;;2.92;1.40;;;;;;;;;;5136119;27;20434;-71
2022/01/10 05:36:26;;;;;;;3.72;1.38;;;;;;;;;;5136074;27;20055;-72
2022/01/10 05:38:52;;;;;;;3.28;1.70;;;;;;;;;;5135864;27;20122;-70
2022/01/10 05:41:21;;;;;;;6.35;1.45;;;;;;;;;;5117564;27;20041;-70
2022/01/10 05:43:47;;;;;;;3.05;1.58;;;;;;;;;;5136109;27;20095;-72
2022/01/10 05:46:16;;;;;;;17.38;1.58;;;;;;;;;;5118088;27;20034;-73
2022/01/10 05:48:47;;;;;;;13.73;1.80;;;;;;;;;;5136295;27;20079;-72
2022/01/10 05:51:13;;;;;;;8.18;1.67;;;;;;;;;;5099779;28;20027;-71
2022/01/10 05:53:39;;;;;;;5.53;1.67;;;;;;;;;;5115397;28;20052;-74
2022/01/10 05:56:05;;;;;;;5.28;1.70;;;;;;;;;;5097129;28;20070;-72
2022/01/10 05:58:31;;;;;;;6.03;1.98;;;;;;;;;;5097293;28;20514;-74
2022/01/10 06:00:57;;;;;;;4.15;2.00;;;;;;;;;;5117928;27;20023;-72
2022/01/10 06:03:23;;;;;;;6.20;1.50;;;;;;;;;;5117538;27;20053;-71
2022/01/10 06:05:49;;;;;;;4.03;1.75;;;;;;;;;;5117210;27;20169;-73
2022/01/10 06:08:15;;;;;;;5.25;1.45;;;;;;;;;;5135520;27;20059;-72
2022/01/10 06:10:41;;;;;;;3.03;1.58;;;;;;;;;;5135285;27;20027;-68
2022/01/10 06:13:07;;;;;;;8.15;1.63;;;;;;;;;;5135396;27;20122;-68
2022/01/10 06:15:33;;;;;;;6.03;1.65;;;;;;;;;;5135920;27;20039;-67
2022/01/10 06:17:59;;;;;;;5.90;1.30;;;;;;;;;;5135396;27;20401;-70
2022/01/10 06:20:26;;;;;;;3.67;1.58;;;;;;;;;;5135333;27;20031;-71
2022/01/10 06:22:52;;;;;;;4.43;1.55;;;;;;;;;;5135223;27;20079;-70
2022/01/10 06:25:20;;;;;;;4.47;1.55;;;;;;;;;;5135407;27;20513;-71
2022/01/10 06:27:46;;;;;;;4.80;1.75;;;;;;;;;;5116528;27;20023;-71
2022/01/10 06:30:12;;;;;;;6.60;1.77;;;;;;;;;;5135122;27;20030;-73
2022/01/10 06:32:38;;;;;;;6.22;1.77;;;;;;;;;;5135012;27;20019;-71
2022/01/10 06:35:04;;;;;;;5.22;1.70;;;;;;;;;;5134768;27;20062;-74
2022/01/10 06:37:30;;;;;;;3.00;1.50;;;;;;;;;;5134576;27;20035;-71
2022/01/10 06:39:56;;;;;;;3.92;1.40;;;;;;;;;;5134865;27;20378;-69
2022/01/10 06:42:22;;;;;;;2.70;1.42;;;;;;;;;;5134773;27;20019;-71
2022/01/10 06:44:48;;;;;;;5.65;1.50;;;;;;;;;;5134751;27;20029;-72
2022/01/10 06:47:14;;;;;;;4.55;1.85;;;;;;;;;;5124283;27;20031;-71
2022/01/10 06:49:40;;;;;;;4.63;1.67;;;;;;;;;;5114118;27;20049;-73
2022/01/10 06:52:06;;;;;;;4.03;1.85;;;;;;;;;;5125155;27;20023;-74
2022/01/10 06:54:32;;;;;;;2.58;1.20;;;;;;;;;;5103359;28;20026;-76
2022/01/10 06:56:58;;;;;;;8.70;1.52;;;;;;;;;;5118808;27;20243;-74
2022/01/10 06:59:25;;;;;;;17.55;1.85;;;;;;;;;;5114307;28;20024;-75
2022/01/10 07:01:52;;;;;;;11.93;2.03;;;;;;;;;;5114755;28;20024;-76
2022/01/10 07:04:18;;;;;;;6.32;1.60;;;;;;;;;;5114454;28;20456;-74
2022/01/10 07:06:44;;;;;;;11.82;1.45;;;;;;;;;;5114160;28;20058;-70
2022/01/10 07:09:10;;;;;;;4.05;1.52;;;;;;;;;;5113594;28;20115;-68
2022/01/10 07:11:36;;;;;;;25.17;2.30;;;;;;;;;;5124454;27;20072;-79
2022/01/10 07:14:03;;;;;;;57.55;4.45;;;;;;;;;;5134924;27;20038;-72
2022/01/10 07:16:28;;;;;;;31.80;2.92;;;;;;;;;;5134119;27;20034;-74
2022/01/10 07:18:54;;;;;;;35.08;3.53;;;;;;;;;;5134187;27;20042;-73
2022/01/10 07:21:21;;;;;;;45.63;3.10;;;;;;;;;;5133888;27;20058;-71
2022/01/10 07:23:48;;;;;;;36.33;4.20;;;;;;;;;;5114149;27;20089;-69
2022/01/10 07:26:14;;;;;;;27.02;3.08;;;;;;;;;;5134662;27;20367;-71
2022/01/10 07:28:40;;;;;;;20.00;3.08;;;;;;;;;;5133154;27;20034;-72
2022/01/10 07:31:06;;;;;;;14.80;3.47;;;;;;;;;;5113667;27;20370;-71
2022/01/10 07:33:32;;;;;;;19.45;3.25;;;;;;;;;;5134711;27;20031;-71
2022/01/10 07:35:58;;;;;;;27.98;3.65;;;;;;;;;;5133251;27;20139;-69
2022/01/10 07:38:24;;;;;;;11.80;2.97;;;;;;;;;;5134054;27;20034;-71
2022/01/10 07:40:51;;;;;;;20.27;3.67;;;;;;;;;;5133740;27;20027;-71
2022/01/10 07:43:17;;;;;;;9.80;3.13;;;;;;;;;;5133625;27;20027;-70
2022/01/10 07:45:43;;;;;;;15.45;3.40;;;;;;;;;;5136255;27;20035;-71
2022/01/10 07:48:10;;;;;;;11.15;3.33;;;;;;;;;;5133804;28;20046;-71
2022/01/10 07:50:36;;;;;;;17.67;3.70;;;;;;;;;;5133804;28;20035;-71
2022/01/10 07:53:02;;;;;;;13.20;3.00;;;;;;;;;;5133859;28;20084;-70
2022/01/10 07:55:28;;;;;;;13.77;3.30;;;;;;;;;;5133876;28;20381;-73
2022/01/10 07:57:54;;;;;;;10.82;3.00;;;;;;;;;;5134276;28;20043;-71
2022/01/10 08:00:20;;;;;;;7.13;3.15;;;;;;;;;;5133305;28;20082;-76
2022/01/10 08:02:46;;;;;;;7.35;2.83;;;;;;;;;;5133995;28;20027;-80
2022/01/10 08:05:12;;;;;;;9.13;3.00;;;;;;;;;;5114984;28;20037;-69
2022/01/10 08:07:38;;;;;;;6.15;2.65;;;;;;;;;;5132725;28;20015;-69
2022/01/10 08:10:04;;;;;;;10.32;3.28;;;;;;;;;;5115130;28;20023;-69
2022/01/10 08:12:30;;;;;;;8.15;3.10;;;;;;;;;;5133035;28;20019;-67
2022/01/10 08:14:57;;;;;;;8.13;2.75;;;;;;;;;;5132975;28;20039;-67
2022/01/10 08:17:23;;;;;;;8.68;2.88;;;;;;;;;;5133163;28;20031;-67
2022/01/10 08:19:50;;;;;;;10.88;2.47;;;;;;;;;;5132987;28;20019;-67
2022/01/10 08:22:16;;;;;;;5.72;2.42;;;;;;;;;;5133062;28;20027;-67
2022/01/10 08:24:42;;;;;;;6.28;2.60;;;;;;;;;;5132237;28;20096;-68
2022/01/10 08:27:08;;;;;;;6.85;2.95;;;;;;;;;;5133139;28;20027;-67
2022/01/10 08:29:34;;;;;;;7.57;2.42;;;;;;;;;;5116987;27;20030;-70
2022/01/10 08:32:00;;;;;;;7.55;2.65;;;;;;;;;;5133653;27;20027;-68
2022/01/10 08:34:26;;;;;;;5.93;2.40;;;;;;;;;;5129821;27;20024;-72
2022/01/10 08:36:54;;;;;;;6.57;2.88;;;;;;;;;;5137253;27;20051;-69
2022/01/10 08:39:20;;;;;;;8.23;2.67;;;;;;;;;;5137064;27;20022;-67
2022/01/10 08:41:46;;;;;;;5.93;2.50;;;;;;;;;;5136949;27;20086;-69
2022/01/10 08:44:14;;;;;;;4.82;2.58;;;;;;;;;;5137034;27;20368;-69
2022/01/10 08:46:41;;;;;;;6.22;2.63;;;;;;;;;;5137500;27;20015;-68
2022/01/10 08:49:06;;;;;;;7.65;2.72;;;;;;;;;;5137667;27;20094;-74
2022/01/10 08:51:34;;;;;;;7.90;2.25;;;;;;;;;;5137354;27;20098;-73
2022/01/10 08:54:01;;;;;;;7.50;2.22;;;;;;;;;;5128815;27;20027;-68
2022/01/10 08:56:27;;;;;;;8.25;2.50;;;;;;;;;;5136972;27;20042;-68
2022/01/10 08:58:53;;;;;;;3.58;2.13;;;;;;;;;;5136765;27;20027;-67
2022/01/10 09:01:19;;;;;;;5.85;2.80;;;;;;;;;;5136552;27;20054;-68
2022/01/10 09:03:45;;;;;;;6.40;2.92;;;;;;;;;;5136636;27;20019;-67
2022/01/10 09:06:11;;;;;;;6.82;2.20;;;;;;;;;;5136331;27;20034;-71
2022/01/10 09:08:39;;;;;;;7.90;2.58;;;;;;;;;;5136401;27;20027;-67
2022/01/10 09:11:05;;;;;;;6.85;2.40;;;;;;;;;;5135888;27;20091;-67
2022/01/10 09:13:31;;;;;;;4.65;2.35;;;;;;;;;;5123535;27;20034;-68
2022/01/10 09:15:57;;;;;;;4.32;2.20;;;;;;;;;;5131014;27;20027;-67
2022/01/10 09:18:24;;;;;;;7.13;2.35;;;;;;;;;;5133201;27;20026;-68
2022/01/10 09:20:52;;;;;;;7.05;2.40;;;;;;;;;;5136486;27;20080;-72
2022/01/10 09:23:18;;;;;;;5.05;2.50;;;;;;;;;;5136079;27;20019;-68
2022/01/10 09:25:45;;;;;;;3.38;2.38;;;;;;;;;;5135894;27;20373;-67
2022/01/10 09:28:11;;;;;;;7.03;2.60;;;;;;;;;;5136083;27;20094;-68
2022/01/10 09:30:37;;;;;;;9.02;2.83;;;;;;;;;;5136202;27;20478;-68
2022/01/10 09:33:03;;;;;;;3.60;2.13;;;;;;;;;;5134064;27;20084;-69
2022/01/10 09:35:29;;;;;;;5.18;2.20;;;;;;;;;;5116885;27;20062;-69
2022/01/10 09:37:55;;;;;;;6.38;2.92;;;;;;;;;;5121515;27;20015;-72
2022/01/10 09:40:22;;;;;;;7.57;2.67;;;;;;;;;;5127079;27;20546;-71
2022/01/10 09:42:49;;;;;;;6.10;2.58;;;;;;;;;;5127238;27;20051;-77
2022/01/10 09:45:15;;;;;;;3.95;2.15;;;;;;;;;;5130729;27;20058;-77
2022/01/10 09:47:41;;;;;;;4.75;2.60;;;;;;;;;;5136836;27;20039;-73
2022/01/10 09:50:08;;;;;;;5.00;2.30;;;;;;;;;;5131235;27;20026;-68
2022/01/10 09:52:34;;;;;;;4.15;2.33;;;;;;;;;;5132279;27;20058;-76
2022/01/10 09:55:00;;;;;;;5.32;2.58;;;;;;;;;;5127127;27;20115;-68
2022/01/10 09:57:26;;;;;;;5.03;2.55;;;;;;;;;;5123846;27;20065;-68
2022/01/10 09:59:52;;;;;;;4.55;2.35;;;;;;;;;;5108658;27;20027;-67
2022/01/10 10:02:18;;;;;;;5.05;2.47;;;;;;;;;;5118373;27;20422;-68
2022/01/10 10:04:45;;;;;;;6.03;2.50;;;;;;;;;;5115411;28;20019;-68
2022/01/10 10:07:11;;;;;;;5.13;2.63;;;;;;;;;;5097042;28;20367;-72
2022/01/10 10:09:37;;;;;;;6.88;2.63;;;;;;;;;;5114788;28;20382;-68
2022/01/10 10:12:04;;;;;;;5.45;2.25;;;;;;;;;;5096628;28;20031;-76
2022/01/10 10:14:30;;;;;;;5.68;2.75;;;;;;;;;;5114330;28;20045;-69
2022/01/10 10:16:57;;;;;;;8.35;3.58;;;;;;;;;;5114735;28;20107;-69
2022/01/10 10:19:24;;;;;;;5.38;2.20;;;;;;;;;;5115111;28;20081;-67
2022/01/10 10:21:51;;;;;;;3.78;2.40;;;;;;;;;;5114477;28;20419;-68
2022/01/10 10:24:17;;;;;;;5.30;2.40;;;;;;;;;;5128484;27;20019;-70
2022/01/10 10:26:43;;;;;;;4.88;2.42;;;;;;;;;;5131642;27;20020;-68
2022/01/10 10:29:13;;;;;;;6.00;2.75;;;;;;;;;;5114586;27;20497;-73
2022/01/10 10:31:45;;;;;;;3.97;2.35;;;;;;;;;;5115086;28;20020;-68
2022/01/10 10:34:17;;;;;;;4.88;2.40;;;;;;;;;;5107013;28;20020;-67
2022/01/10 10:36:43;;;;;;;6.30;2.38;;;;;;;;;;5096101;28;20478;-73
2022/01/10 10:39:10;;;;;;;5.07;2.30;;;;;;;;;;5114606;28;20494;-70
2022/01/10 10:41:37;;;;;;;8.88;3.08;;;;;;;;;;5114666;28;20066;-68
2022/01/10 10:44:04;;;;;;;5.63;2.55;;;;;;;;;;5114500;28;20459;-68
2022/01/10 10:46:30;;;;;;;3.95;2.40;;;;;;;;;;5114174;28;20393;-69
2022/01/10 10:49:01;;;;;;;4.80;2.58;;;;;;;;;;5114465;28;20020;-71
2022/01/10 10:51:28;;;;;;;4.63;2.70;;;;;;;;;;5096020;28;20108;-70
2022/01/10 10:53:56;;;;;;;6.40;2.90;;;;;;;;;;5095905;28;20035;-75
2022/01/10 10:56:22;;;;;;;7.07;2.90;;;;;;;;;;5113715;28;20040;-75
2022/01/10 10:58:48;;;;;;;5.28;2.70;;;;;;;;;;5109943;28;20100;-74
2022/01/10 11:01:14;;;;;;;7.28;2.97;;;;;;;;;;5114837;28;20030;-71
2022/01/10 11:03:40;;;;;;;5.40;3.00;;;;;;;;;;5097141;28;20020;-74
2022/01/10 11:06:07;;;;;;;3.70;2.60;;;;;;;;;;5096657;28;20125;-68
2022/01/10 11:08:36;;;;;;;3.38;2.83;;;;;;;;;;5114398;28;20110;-68
2022/01/10 11:11:02;;;;;;;14.57;3.42;;;;;;;;;;5113991;28;20058;-72
2022/01/10 11:13:31;;;;;;;3.53;2.72;;;;;;;;;;5114125;28;20031;-71
2022/01/10 11:15:58;;;;;;;11.23;3.15;;;;;;;;;;5113345;28;20036;-70
2022/01/10 11:18:24;;;;;;;10.27;3.10;;;;;;;;;;5113691;28;20050;-69
2022/01/10 11:20:51;;;;;;;23.65;3.40;;;;;;;;;;5113654;28;20019;-69
2022/01/10 11:23:18;;;;;;;9.02;3.42;;;;;;;;;;5113426;28;20019;-73
2022/01/10 11:25:44;;;;;;;7.80;3.30;;;;;;;;;;5112763;27;20454;-69
2022/01/10 11:28:11;;;;;;;9.40;2.42;;;;;;;;;;5124212;27;20043;-70
2022/01/10 11:30:40;;;;;;;13.70;2.55;;;;;;;;;;5113177;28;20386;-71
2022/01/10 11:33:08;;;;;;;11.10;2.08;;;;;;;;;;5103566;27;20367;-69
2022/01/10 11:35:35;;;;;;;7.32;2.10;;;;;;;;;;5113010;28;20393;-69
2022/01/10 11:38:15;;;;;;;13.45;2.10;;;;;;;;;;5113350;28;20028;-66
2022/01/10 11:40:42;;;;;;;7.15;2.08;;;;;;;;;;5119216;27;20038;-66
2022/01/10 11:43:08;;;;;;;8.75;2.10;;;;;;;;;;5103100;28;20105;-66
2022/01/10 11:45:42;;;;;;;8.40;2.10;;;;;;;;;;5112982;28;20458;-72
2022/01/10 11:48:11;;;;;;;18.83;2.20;;;;;;;;;;5111704;28;20474;-72
2022/01/10 11:50:40;;;;;;;18.88;2.30;;;;;;;;;;5112997;28;20478;-74
2022/01/10 11:53:06;;;;;;;4.10;1.88;;;;;;;;;;5108779;28;20024;-67
2022/01/10 11:55:42;;;;;;;6.90;2.10;;;;;;;;;;5092701;28;20038;-67
2022/01/10 11:58:18;;;;;;;8.57;2.35;;;;;;;;;;5093310;28;20032;-67
2022/01/10 12:00:45;;;;;;;4.50;2.63;;;;;;;;;;5112181;28;20110;-67
2022/01/10 12:03:11;;;;;;;4.22;2.72;;;;;;;;;;5094589;28;20088;-67
2022/01/10 12:05:37;;;;;;;10.15;2.70;;;;;;;;;;5093311;28;20110;-69
2022/01/10 12:08:04;;;;;;;6.10;2.47;;;;;;;;;;5113252;28;20038;-68
2022/01/10 12:10:30;;;;;;;7.15;2.80;;;;;;;;;;5115338;28;20045;-68
2022/01/10 12:13:05;;;;;;;6.80;2.60;;;;;;;;;;5115363;28;20024;-69
2022/01/10 12:15:35;;;;;;;7.55;2.80;;;;;;;;;;5115119;28;20034;-69
2022/01/10 12:18:01;;;;;;;7.82;3.30;;;;;;;;;;5114989;28;20032;-68
2022/01/10 12:20:27;;;;;;;5.57;2.80;;;;;;;;;;5096718;28;20106;-68
2022/01/10 12:22:54;;;;;;;7.38;3.28;;;;;;;;;;5096613;28;20122;-69
2022/01/10 12:25:20;;;;;;;7.88;2.97;;;;;;;;;;5115099;28;20035;-68
2022/01/10 12:27:46;;;;;;;8.18;3.40;;;;;;;;;;5120778;27;20027;-68
2022/01/10 12:30:13;;;;;;;5.47;3.50;;;;;;;;;;5114929;27;20092;-70
2022/01/10 12:32:39;;;;;;;10.13;3.92;;;;;;;;;;5115206;28;20012;-70
2022/01/10 12:35:05;;;;;;;6.72;3.60;;;;;;;;;;5114923;28;21344;-69
2022/01/10 12:37:31;;;;;;;9.27;4.00;;;;;;;;;;5115235;28;20035;-70
2022/01/10 12:39:57;;;;;;;8.32;3.40;;;;;;;;;;5114950;28;20020;-67
2022/01/10 12:42:26;;;;;;;8.48;3.20;;;;;;;;;;5115252;28;20028;-69
2022/01/10 12:44:54;;;;;;;11.65;3.72;;;;;;;;;;5117575;27;20035;-70
2022/01/10 12:47:20;;;;;;;6.25;3.42;;;;;;;;;;5117002;27;20058;-72
2022/01/10 12:49:47;;;;;;;7.32;3.45;;;;;;;;;;5135940;27;20027;-71
2022/01/10 12:52:14;;;;;;;10.57;3.80;;;;;;;;;;5118125;27;20011;-70
2022/01/10 12:54:40;;;;;;;6.75;3.72;;;;;;;;;;5136534;27;20031;-72
2022/01/10 12:57:06;;;;;;;8.30;4.38;;;;;;;;;;5136555;27;20042;-71
2022/01/10 12:59:33;;;;;;;10.82;4.40;;;;;;;;;;5136629;27;20050;-71
2022/01/10 13:02:00;;;;;;;15.38;4.25;;;;;;;;;;5136459;27;20023;-72
2022/01/10 13:04:28;;;;;;;7.95;4.13;;;;;;;;;;5136298;27;20034;-72
2022/01/10 13:06:55;;;;;;;8.40;3.97;;;;;;;;;;5117869;27;20023;-71
2022/01/10 13:09:21;;;;;;;10.07;3.95;;;;;;;;;;5136213;27;20020;-71
2022/01/10 13:12:00;;;;;;;10.50;4.18;;;;;;;;;;5136566;27;20110;-71
2022/01/10 13:14:26;;;;;;;9.05;3.90;;;;;;;;;;5136209;27;20388;-70
2022/01/10 13:16:57;;;;;;;8.80;4.10;;;;;;;;;;5136199;27;20576;-70
2022/01/10 13:19:27;;;;;;;8.90;4.53;;;;;;;;;;5135269;27;20631;-70
2022/01/10 13:21:57;;;;;;;9.32;4.05;;;;;;;;;;5136533;27;20038;-72
2022/01/10 13:24:24;;;;;;;8.48;4.30;;;;;;;;;;5117744;27;20382;-70
2022/01/10 13:26:59;;;;;;;11.95;4.53;;;;;;;;;;5136398;27;20082;-70
2022/01/10 13:29:51;;;;;;;9.80;4.32;;;;;;;;;;5136139;27;20108;-70
2022/01/10 13:32:24;;;;;;;8.73;4.20;;;;;;;;;;5132352;27;20513;-71
2022/01/10 13:34:51;;;;;;;6.00;4.00;;;;;;;;;;5135344;27;20031;-72
2022/01/10 13:37:37;;;;;;;9.60;4.53;;;;;;;;;;5117222;27;20093;-72
2022/01/10 13:40:12;;;;;;;9.45;4.38;;;;;;;;;;5117638;27;20020;-70
2022/01/10 13:42:39;;;;;;;9.38;3.85;;;;;;;;;;5136324;27;20035;-73
2022/01/10 13:45:06;;;;;;;10.27;4.40;;;;;;;;;;5135769;27;20027;-73
2022/01/10 13:48:11;;;;;;;8.75;3.97;;;;;;;;;;5135634;27;20019;-73
2022/01/10 13:50:41;;;;;;;9.20;4.10;;;;;;;;;;5052138;28;20127;-73
2022/01/10 13:53:07;;;;;;;8.73;4.38;;;;;;;;;;5052232;28;20447;-73
2022/01/10 13:55:33;;;;;;;9.80;4.28;;;;;;;;;;5093797;27;20131;-73
2022/01/10 13:58:00;;;;;;;7.38;3.90;;;;;;;;;;5135353;27;20104;-72
2022/01/10 14:00:26;;;;;;;5.45;3.65;;;;;;;;;;5135714;27;20020;-73
2022/01/10 14:02:54;;;;;;;8.32;4.05;;;;;;;;;;5116825;27;20030;-73
2022/01/10 14:05:21;;;;;;;9.50;4.32;;;;;;;;;;5116951;27;20036;-73
2022/01/10 14:07:48;;;;;;;8.43;3.92;;;;;;;;;;5135493;27;20024;-73
2022/01/10 14:10:14;;;;;;;8.75;4.05;;;;;;;;;;5135356;27;20099;-73
2022/01/10 14:12:41;;;;;;;6.55;3.90;;;;;;;;;;5135271;27;20031;-74
2022/01/10 14:15:07;;;;;;;8.02;4.03;;;;;;;;;;5117113;27;20084;-73
2022/01/10 14:17:33;;;;;;;6.90;4.00;;;;;;;;;;5135136;27;20085;-74
2022/01/10 14:19:59;;;;;;;8.63;4.35;;;;;;;;;;5135219;27;20051;-72
2022/01/10 14:22:25;;;;;;;10.07;4.20;;;;;;;;;;5123383;27;20024;-73
2022/01/10 14:24:51;;;;;;;8.63;3.80;;;;;;;;;;5116123;27;20046;-71
2022/01/10 14:27:17;;;;;;;9.10;4.38;;;;;;;;;;5116307;27;20101;-72
2022/01/10 14:29:43;;;;;;;7.15;3.90;;;;;;;;;;5116408;27;20023;-71
2022/01/10 14:32:11;;;;;;;8.43;4.18;;;;;;;;;;5134970;27;20045;-72
2022/01/10 14:34:37;;;;;;;10.75;4.40;;;;;;;;;;5134894;27;20102;-65
2022/01/10 14:37:03;;;;;;;8.30;3.95;;;;;;;;;;5134092;27;20434;-76
2022/01/10 14:39:29;;;;;;;9.32;3.88;;;;;;;;;;5135287;27;20035;-69
2022/01/10 14:41:57;;;;;;;7.15;3.80;;;;;;;;;;5134963;27;20027;-68
2022/01/10 14:44:23;;;;;;;9.10;4.05;;;;;;;;;;5116586;27;20031;-68
2022/01/10 14:46:49;;;;;;;6.55;3.95;;;;;;;;;;5137017;27;20120;-77
2022/01/10 14:49:15;;;;;;;8.85;4.10;;;;;;;;;;5118344;27;20031;-67
2022/01/10 14:51:41;;;;;;;10.30;4.25;;;;;;;;;;5133576;27;20486;-67